Time;durP1;ratioP1;P1;durP2;ratioP2;P2;SDS_P1;SDS_P2;PMS_P1;PMS_P2;Temp;Humidity;BMP_temperature;BMP_pressure;BME280_temperature;BME280_humidity;BME280_pressure;Samples;Min_cycle;Max_cycle;Signal;HPM_P1;HPM_P2
2021/08/31 00:02:05;;;;;;;1.95;1.08;;;13.70;99.90;;;;;;5129531;27;20039;-81
2021/08/31 00:04:30;;;;;;;3.28;1.27;;;13.90;99.90;;;;;;5122320;27;20080;-82
2021/08/31 00:06:57;;;;;;;4.25;0.93;;;13.90;99.90;;;;;;5121635;27;20473;-82
2021/08/31 00:09:24;;;;;;;2.05;0.90;;;14.00;99.90;;;;;;5116163;27;20028;-81
2021/08/31 00:11:50;;;;;;;1.92;0.80;;;14.00;99.90;;;;;;5119999;27;20153;-81
2021/08/31 00:14:16;;;;;;;3.30;1.30;;;13.90;99.90;;;;;;5116015;27;20023;-82
2021/08/31 00:16:42;;;;;;;4.72;1.30;;;13.90;99.90;;;;;;5123510;27;20024;-79
2021/08/31 00:19:08;;;;;;;4.10;1.23;;;13.90;99.90;;;;;;5120941;27;20030;-81
2021/08/31 00:21:34;;;;;;;3.55;0.90;;;13.80;99.90;;;;;;5121388;27;20102;-81
2021/08/31 00:23:59;;;;;;;1.85;0.82;;;13.80;99.90;;;;;;5128280;27;20035;-82
2021/08/31 00:26:25;;;;;;;2.05;0.90;;;13.90;99.90;;;;;;5112598;27;20030;-82
2021/08/31 00:28:51;;;;;;;2.67;1.00;;;13.90;99.90;;;;;;5122572;27;20478;-82
2021/08/31 00:31:16;;;;;;;3.88;0.93;;;13.80;99.90;;;;;;5119859;27;20090;-81
2021/08/31 00:33:42;;;;;;;3.03;0.80;;;13.80;99.90;;;;;;5120291;27;20027;-81
2021/08/31 00:36:08;;;;;;;3.38;0.98;;;13.70;99.90;;;;;;5113267;27;20470;-82
2021/08/31 00:38:34;;;;;;;1.88;0.80;;;13.70;99.90;;;;;;5093535;28;20023;-82
2021/08/31 00:41:00;;;;;;;2.65;0.75;;;13.60;99.90;;;;;;5121827;27;20362;-81
2021/08/31 00:43:26;;;;;;;2.88;1.02;;;13.60;99.90;;;;;;5111056;27;20473;-81
2021/08/31 00:45:51;;;;;;;1.67;1.02;;;13.60;99.90;;;;;;5116730;27;20484;-82
2021/08/31 00:48:22;;;;;;;3.17;0.90;;;13.50;99.90;;;;;;5123522;27;20039;-82
2021/08/31 00:50:50;;;;;;;3.30;0.73;;;13.50;99.90;;;;;;5109949;28;20023;-82
2021/08/31 00:53:16;;;;;;;2.58;1.50;;;13.50;99.90;;;;;;5111133;27;20031;-82
2021/08/31 00:55:42;;;;;;;3.45;1.15;;;13.50;99.90;;;;;;5114820;27;20220;-81
2021/08/31 00:58:08;;;;;;;1.95;0.82;;;13.60;99.90;;;;;;5132156;27;20102;-81
2021/08/31 01:00:34;;;;;;;1.55;0.73;;;13.60;99.90;;;;;;5111038;27;20165;-82
2021/08/31 01:02:59;;;;;;;3.55;1.33;;;13.50;99.90;;;;;;5128649;27;20023;-82
2021/08/31 01:05:32;;;;;;;2.72;1.20;;;13.30;99.90;;;;;;5113346;27;20058;-82
2021/08/31 01:07:58;;;;;;;1.92;0.93;;;13.30;99.90;;;;;;5118295;27;20043;-82
2021/08/31 01:10:24;;;;;;;2.63;0.90;;;13.50;99.90;;;;;;5112905;27;20518;-82
2021/08/31 01:12:51;;;;;;;2.05;0.70;;;13.60;99.90;;;;;;5124837;27;20023;-83
2021/08/31 01:15:17;;;;;;;2.78;1.52;;;13.60;99.90;;;;;;5118026;27;20434;-82
2021/08/31 01:17:43;;;;;;;4.53;1.17;;;13.50;99.90;;;;;;5117927;27;20027;-82
2021/08/31 01:20:10;;;;;;;2.80;0.95;;;13.60;99.90;;;;;;5128627;27;20057;-81
2021/08/31 01:22:35;;;;;;;2.67;1.20;;;14.00;99.90;;;;;;5129317;27;20106;-82
2021/08/31 01:25:04;;;;;;;2.30;1.00;;;13.90;99.90;;;;;;5116342;27;20324;-82
2021/08/31 01:27:30;;;;;;;2.53;0.82;;;13.60;99.90;;;;;;5120628;27;20027;-81
2021/08/31 01:29:57;;;;;;;1.83;0.75;;;13.60;99.90;;;;;;5131707;27;20035;-82
2021/08/31 01:32:23;;;;;;;2.60;0.90;;;13.60;99.90;;;;;;5115112;27;20023;-81
2021/08/31 01:34:49;;;;;;;2.25;1.13;;;13.60;99.90;;;;;;5124951;27;20032;-82
2021/08/31 01:37:15;;;;;;;3.47;1.30;;;13.70;99.90;;;;;;5122304;28;20559;-82
2021/08/31 01:39:41;;;;;;;1.25;0.65;;;13.70;99.90;;;;;;5111957;28;20431;-82
2021/08/31 01:42:07;;;;;;;2.08;0.82;;;13.60;99.90;;;;;;5114694;27;20420;-82
2021/08/31 01:44:33;;;;;;;1.73;0.77;;;13.80;99.90;;;;;;5120183;28;20040;-81
2021/08/31 01:46:58;;;;;;;2.42;0.70;;;13.80;99.90;;;;;;5130125;27;20072;-81
2021/08/31 01:49:24;;;;;;;2.13;1.13;;;13.80;99.90;;;;;;5123112;27;20050;-82
2021/08/31 01:51:50;;;;;;;1.27;0.70;;;13.70;99.90;;;;;;5119512;27;20377;-82
2021/08/31 01:54:16;;;;;;;2.08;0.80;;;13.60;99.90;;;;;;5111526;28;20035;-81
2021/08/31 01:56:41;;;;;;;2.35;0.90;;;13.70;99.90;;;;;;5113221;28;20431;-81
2021/08/31 01:59:08;;;;;;;1.70;1.00;;;13.60;99.90;;;;;;5116416;27;20031;-82
2021/08/31 02:01:34;;;;;;;1.65;0.75;;;13.60;99.90;;;;;;5120565;28;20384;-81
2021/08/31 02:04:00;;;;;;;5.60;1.00;;;13.70;99.90;;;;;;5127410;28;20474;-82
2021/08/31 02:06:26;;;;;;;3.60;0.98;;;13.60;99.90;;;;;;5121579;27;20023;-81
2021/08/31 02:08:52;;;;;;;2.15;0.82;;;13.60;99.90;;;;;;5129711;27;20026;-81
2021/08/31 02:11:18;;;;;;;1.55;0.70;;;13.60;99.90;;;;;;5111408;28;20050;-81
2021/08/31 02:13:43;;;;;;;3.05;1.23;;;13.60;99.90;;;;;;5109342;28;20027;-82
2021/08/31 02:16:09;;;;;;;5.00;1.25;;;13.60;99.90;;;;;;5112071;28;20489;-82
2021/08/31 02:18:40;;;;;;;3.33;0.88;;;13.60;99.90;;;;;;5121711;27;20407;-82
2021/08/31 02:21:10;;;;;;;3.42;0.90;;;13.60;99.90;;;;;;5128430;27;20023;-82
2021/08/31 02:23:41;;;;;;;4.75;1.55;;;13.60;99.90;;;;;;5126835;27;20491;-82
2021/08/31 02:26:07;;;;;;;2.15;0.80;;;13.50;99.90;;;;;;5122476;28;20392;-82
2021/08/31 02:28:33;;;;;;;3.35;0.80;;;13.50;99.90;;;;;;5119736;28;20023;-82
2021/08/31 02:30:58;;;;;;;2.35;1.08;;;13.50;99.90;;;;;;5121406;28;20030;-82
2021/08/31 02:33:24;;;;;;;1.77;0.75;;;13.50;99.90;;;;;;5122626;28;20043;-81
2021/08/31 02:35:50;;;;;;;3.50;1.17;;;13.30;99.90;;;;;;5121238;27;20131;-82
2021/08/31 02:38:16;;;;;;;2.83;0.80;;;13.20;99.90;;;;;;5118291;27;20393;-82
2021/08/31 02:40:41;;;;;;;2.15;0.70;;;13.30;99.90;;;;;;5127335;27;20027;-81
2021/08/31 02:43:07;;;;;;;2.30;0.80;;;13.30;99.90;;;;;;5116366;27;20023;-82
2021/08/31 02:45:33;;;;;;;2.10;0.95;;;13.40;99.90;;;;;;5114470;27;20056;-81
2021/08/31 02:47:58;;;;;;;4.07;1.38;;;13.40;99.90;;;;;;5118862;27;20032;-82
2021/08/31 02:50:24;;;;;;;3.15;0.80;;;13.50;99.90;;;;;;5120516;27;20672;-82
2021/08/31 02:52:50;;;;;;;10.13;2.25;;;13.50;99.90;;;;;;5124972;27;20464;-81
2021/08/31 02:55:16;;;;;;;2.95;0.70;;;13.40;99.90;;;;;;5121996;27;20024;-81
2021/08/31 02:57:42;;;;;;;2.13;0.90;;;13.30;99.90;;;;;;5126910;27;20033;-81
2021/08/31 03:00:09;;;;;;;5.72;0.88;;;13.20;99.90;;;;;;5126754;27;20031;-82
2021/08/31 03:02:35;;;;;;;3.15;0.70;;;13.10;99.90;;;;;;5119849;27;20027;-82
2021/08/31 03:05:01;;;;;;;2.92;0.98;;;13.10;99.90;;;;;;5117902;27;20645;-81
2021/08/31 03:07:27;;;;;;;3.78;0.98;;;13.20;99.90;;;;;;5121454;27;20027;-82
2021/08/31 03:09:52;;;;;;;1.77;0.90;;;13.20;99.90;;;;;;5111933;27;20047;-82
2021/08/31 03:12:18;;;;;;;2.60;1.10;;;13.20;99.90;;;;;;5119536;27;20083;-82
2021/08/31 03:14:44;;;;;;;1.98;1.00;;;13.20;99.90;;;;;;5117029;27;20547;-81
2021/08/31 03:17:11;;;;;;;2.25;1.10;;;13.20;99.90;;;;;;5115768;27;20039;-81
2021/08/31 03:19:37;;;;;;;2.17;1.30;;;13.10;99.90;;;;;;5114698;27;20034;-81
2021/08/31 03:22:05;;;;;;;4.25;1.60;;;13.10;99.90;;;;;;5116362;27;20413;-82
2021/08/31 03:24:31;;;;;;;4.65;1.35;;;13.00;99.90;;;;;;5117939;27;20035;-81
2021/08/31 03:26:57;;;;;;;4.07;1.30;;;12.90;99.90;;;;;;5109982;27;20024;-81
2021/08/31 03:29:23;;;;;;;2.90;1.40;;;12.90;99.90;;;;;;5107364;27;20355;-82
2021/08/31 03:31:49;;;;;;;2.63;1.40;;;13.00;99.90;;;;;;5112916;27;20027;-82
2021/08/31 03:34:15;;;;;;;2.08;1.10;;;12.90;99.90;;;;;;5108840;27;20032;-80
2021/08/31 03:36:41;;;;;;;2.17;1.13;;;12.90;99.90;;;;;;5117836;27;20609;-83
2021/08/31 03:39:07;;;;;;;3.13;1.80;;;12.90;99.90;;;;;;5117985;27;20031;-82
2021/08/31 03:41:33;;;;;;;2.25;1.10;;;12.90;99.90;;;;;;5115196;27;20106;-82
2021/08/31 03:43:59;;;;;;;3.65;1.40;;;12.90;99.90;;;;;;5116038;27;20030;-81
2021/08/31 03:46:25;;;;;;;3.05;1.50;;;12.80;99.90;;;;;;5109045;27;20030;-82
2021/08/31 03:48:51;;;;;;;3.13;1.42;;;12.80;99.90;;;;;;5111612;27;20015;-82
2021/08/31 03:51:16;;;;;;;2.95;1.70;;;12.80;99.90;;;;;;5121927;27;20715;-82
2021/08/31 03:53:42;;;;;;;2.85;1.20;;;12.80;99.90;;;;;;5126946;27;20031;-80
2021/08/31 03:56:08;;;;;;;2.30;1.13;;;12.80;99.90;;;;;;5109958;27;20050;-80
2021/08/31 03:58:34;;;;;;;2.15;1.25;;;12.80;99.90;;;;;;5114892;27;20027;-82
2021/08/31 04:00:59;;;;;;;3.17;1.83;;;12.80;99.90;;;;;;5114130;27;20031;-82
2021/08/31 04:03:25;;;;;;;4.40;1.55;;;12.70;99.90;;;;;;5123396;27;20031;-82
2021/08/31 04:05:51;;;;;;;4.00;1.45;;;12.60;99.90;;;;;;5108866;27;20030;-82
2021/08/31 04:08:16;;;;;;;2.95;1.40;;;12.60;99.90;;;;;;5114741;27;20027;-81
2021/08/31 04:10:42;;;;;;;5.53;1.73;;;12.60;99.90;;;;;;5111095;27;20666;-81
2021/08/31 04:13:10;;;;;;;3.50;1.67;;;12.70;99.90;;;;;;5114464;27;20472;-82
2021/08/31 04:15:36;;;;;;;2.50;1.27;;;12.70;99.90;;;;;;5117536;27;20023;-82
2021/08/31 04:18:02;;;;;;;2.47;1.42;;;12.60;99.90;;;;;;5099633;27;20023;-81
2021/08/31 04:20:28;;;;;;;3.95;1.58;;;12.60;99.90;;;;;;5109113;27;20051;-82
2021/08/31 04:22:53;;;;;;;3.33;2.10;;;12.60;99.90;;;;;;5133235;27;20066;-82
2021/08/31 04:25:19;;;;;;;4.95;1.70;;;12.60;99.90;;;;;;5122670;27;20522;-82
2021/08/31 04:27:45;;;;;;;4.50;1.75;;;12.60;99.90;;;;;;5105105;28;20409;-82
2021/08/31 04:30:12;;;;;;;6.57;2.22;;;12.50;99.90;;;;;;5108439;27;20504;-81
2021/08/31 04:32:37;;;;;;;4.13;1.90;;;12.50;99.90;;;;;;5111940;27;20031;-81
2021/08/31 04:35:04;;;;;;;3.40;1.83;;;12.40;99.90;;;;;;5113509;27;20082;-82
2021/08/31 04:37:30;;;;;;;4.68;2.65;;;12.40;99.90;;;;;;5115784;27;20134;-82
2021/08/31 04:39:59;;;;;;;5.95;2.33;;;12.40;99.90;;;;;;5111467;27;20901;-82
2021/08/31 04:42:26;;;;;;;3.53;2.28;;;12.40;99.90;;;;;;5111428;27;20035;-82
2021/08/31 04:44:52;;;;;;;4.68;2.10;;;12.40;99.90;;;;;;5095355;28;20429;-82
2021/08/31 04:47:19;;;;;;;4.85;2.50;;;12.40;99.90;;;;;;5114015;27;20024;-81
2021/08/31 04:49:45;;;;;;;3.95;2.45;;;12.50;99.90;;;;;;5109089;27;20034;-82
2021/08/31 04:52:10;;;;;;;5.47;2.60;;;12.50;99.90;;;;;;5110523;27;20031;-82
2021/08/31 04:54:36;;;;;;;4.60;2.55;;;12.50;99.90;;;;;;5105931;27;20473;-82
2021/08/31 04:57:02;;;;;;;5.68;2.67;;;12.50;99.90;;;;;;5119188;27;20027;-82
2021/08/31 04:59:28;;;;;;;5.78;3.00;;;12.40;99.90;;;;;;5108542;27;20040;-81
2021/08/31 05:01:53;;;;;;;5.55;3.78;;;12.40;99.90;;;;;;5113032;27;20024;-83
2021/08/31 05:04:19;;;;;;;10.95;3.65;;;12.40;99.90;;;;;;5119131;27;20035;-82
2021/08/31 05:06:45;;;;;;;5.82;3.03;;;12.50;99.90;;;;;;5106439;27;20558;-81
2021/08/31 05:09:11;;;;;;;5.72;3.00;;;12.60;99.90;;;;;;5130065;27;20035;-82
2021/08/31 05:11:37;;;;;;;6.38;3.08;;;12.60;99.90;;;;;;5131935;27;20026;-82
2021/08/31 05:14:03;;;;;;;4.88;3.38;;;12.60;99.90;;;;;;5115490;27;20020;-82
2021/08/31 05:16:29;;;;;;;4.60;2.40;;;12.60;99.90;;;;;;5113412;27;20023;-81
2021/08/31 05:18:55;;;;;;;5.32;2.80;;;12.70;99.90;;;;;;5094746;27;20030;-82
2021/08/31 05:21:21;;;;;;;4.88;2.53;;;12.70;99.90;;;;;;5117070;27;20088;-82
2021/08/31 05:23:47;;;;;;;5.78;3.15;;;12.60;99.90;;;;;;5114702;27;20591;-82
2021/08/31 05:26:12;;;;;;;5.88;2.97;;;12.70;99.90;;;;;;5108790;27;20436;-82
2021/08/31 05:28:38;;;;;;;5.20;3.28;;;12.70;99.90;;;;;;5106796;27;20027;-82
2021/08/31 05:31:04;;;;;;;5.75;2.80;;;12.70;99.90;;;;;;5113270;27;20023;-80
2021/08/31 05:33:29;;;;;;;4.95;2.90;;;12.70;99.90;;;;;;5118856;27;20474;-78
2021/08/31 05:35:55;;;;;;;4.43;2.75;;;12.80;99.90;;;;;;5123970;27;20030;-78
2021/08/31 05:38:21;;;;;;;8.13;3.13;;;12.80;99.90;;;;;;5109078;28;20031;-79
2021/08/31 05:40:46;;;;;;;7.20;2.88;;;12.90;99.90;;;;;;5122796;28;20046;-77
2021/08/31 05:43:13;;;;;;;4.78;3.28;;;12.90;99.90;;;;;;5112790;28;20126;-77
2021/08/31 05:45:40;;;;;;;4.43;2.80;;;12.90;99.90;;;;;;5112658;27;20050;-79
2021/08/31 05:48:05;;;;;;;4.20;2.80;;;13.00;99.90;;;;;;5119012;27;20022;-79
2021/08/31 05:50:32;;;;;;;7.03;2.90;;;13.00;99.90;;;;;;5121037;27;20035;-77
2021/08/31 05:52:58;;;;;;;5.18;2.90;;;13.00;99.90;;;;;;5114291;27;20023;-78
2021/08/31 05:55:24;;;;;;;4.43;2.85;;;13.00;99.90;;;;;;5102796;28;20035;-78
2021/08/31 05:57:50;;;;;;;5.28;2.60;;;13.00;99.90;;;;;;5115907;27;20107;-79
2021/08/31 06:00:16;;;;;;;4.47;2.80;;;13.10;99.90;;;;;;5112892;27;20106;-77
2021/08/31 06:02:45;;;;;;;6.13;2.72;;;13.10;99.90;;;;;;5117125;27;20106;-79
2021/08/31 06:05:11;;;;;;;4.80;2.90;;;13.10;99.90;;;;;;5103637;27;20553;-78
2021/08/31 06:07:42;;;;;;;5.03;2.88;;;13.10;99.90;;;;;;5112454;27;20083;-77
2021/08/31 06:10:09;;;;;;;5.80;2.55;;;13.20;99.90;;;;;;5105829;27;20047;-77
2021/08/31 06:12:35;;;;;;;3.78;2.22;;;13.30;99.90;;;;;;5116600;27;20087;-79
2021/08/31 06:15:01;;;;;;;3.47;1.50;;;13.20;99.90;;;;;;5119846;27;20055;-78
2021/08/31 06:17:27;;;;;;;4.53;2.10;;;13.10;99.90;;;;;;5118107;27;20574;-79
2021/08/31 06:19:53;;;;;;;3.95;2.20;;;13.20;99.90;;;;;;5107923;28;20069;-79
2021/08/31 06:22:18;;;;;;;7.28;2.28;;;12.90;99.90;;;;;;5119432;27;20035;-79
2021/08/31 06:24:46;;;;;;;4.47;2.10;;;13.00;99.90;;;;;;5113235;27;20134;-78
2021/08/31 06:27:12;;;;;;;3.67;1.98;;;12.90;99.90;;;;;;5130041;27;20035;-79
2021/08/31 06:29:38;;;;;;;5.03;2.42;;;12.90;99.90;;;;;;5107272;27;20031;-80
2021/08/31 06:32:04;;;;;;;5.35;2.05;;;13.10;99.90;;;;;;5120149;27;20120;-79
2021/08/31 06:34:30;;;;;;;5.45;2.25;;;13.20;99.90;;;;;;5111313;27;20031;-80
2021/08/31 06:36:56;;;;;;;3.40;1.80;;;13.40;99.90;;;;;;5114920;27;20622;-80
2021/08/31 06:39:21;;;;;;;3.28;2.00;;;13.50;99.90;;;;;;5098150;27;21172;-79
2021/08/31 06:41:47;;;;;;;2.75;1.40;;;13.60;99.90;;;;;;5119206;27;20035;-79
2021/08/31 06:44:13;;;;;;;2.85;1.20;;;13.80;99.90;;;;;;5124072;27;20043;-80
2021/08/31 06:46:39;;;;;;;2.17;1.10;;;14.50;99.90;;;;;;5109096;27;20035;-79
2021/08/31 06:49:06;;;;;;;3.00;1.27;;;15.80;99.90;;;;;;5110622;27;20027;-80
2021/08/31 06:51:32;;;;;;;1.38;0.80;;;18.40;99.90;;;;;;5113302;27;20038;-80
2021/08/31 06:53:59;;;;;;;1.52;0.82;;;19.90;97.60;;;;;;5122674;27;20023;-80
2021/08/31 06:56:25;;;;;;;2.95;1.10;;;21.50;94.30;;;;;;5122811;27;20133;-80
2021/08/31 06:58:51;;;;;;;2.88;0.80;;;22.30;93.50;;;;;;5118414;27;20520;-80
2021/08/31 07:01:16;;;;;;;2.13;0.88;;;22.60;92.50;;;;;;5121058;27;20610;-79
2021/08/31 07:03:42;;;;;;;2.05;0.90;;;22.80;91.30;;;;;;5125319;27;20126;-79
2021/08/31 07:06:07;;;;;;;2.55;1.00;;;22.30;92.80;;;;;;5113200;27;20354;-80
2021/08/31 07:08:33;;;;;;;3.05;0.50;;;22.50;91.30;;;;;;5113425;27;20078;-81
2021/08/31 07:10:59;;;;;;;3.70;0.57;;;23.40;90.90;;;;;;5107992;27;20051;-80
2021/08/31 07:13:25;;;;;;;4.30;1.10;;;23.40;90.90;;;;;;5120793;27;20027;-80
2021/08/31 07:15:51;;;;;;;2.17;1.10;;;24.20;90.40;;;;;;5125026;27;20019;-80
2021/08/31 07:18:17;;;;;;;3.35;1.15;;;23.50;91.00;;;;;;5118054;27;20023;-80
2021/08/31 07:20:43;;;;;;;3.00;0.80;;;23.70;91.10;;;;;;5111765;27;20358;-80
2021/08/31 07:23:11;;;;;;;1.85;1.00;;;23.40;91.30;;;;;;5109492;27;20031;-80
2021/08/31 07:25:37;;;;;;;3.15;0.80;;;23.80;90.50;;;;;;5113250;27;20057;-81
2021/08/31 07:28:03;;;;;;;2.72;1.25;;;23.00;90.90;;;;;;5115664;27;20031;-79
2021/08/31 07:30:28;;;;;;;2.53;1.00;;;20.10;94.20;;;;;;5116146;27;20063;-80
2021/08/31 07:32:54;;;;;;;6.10;1.30;;;17.80;97.90;;;;;;5113916;27;20023;-80
2021/08/31 07:35:20;;;;;;;2.13;0.80;;;16.60;99.90;;;;;;5105153;27;20458;-80
2021/08/31 07:37:46;;;;;;;2.42;0.98;;;15.90;99.90;;;;;;5107181;28;20027;-80
2021/08/31 07:40:12;;;;;;;1.73;0.90;;;15.50;99.90;;;;;;5123088;27;20045;-79
2021/08/31 07:42:38;;;;;;;1.77;0.95;;;15.30;99.90;;;;;;5110334;27;20024;-79
2021/08/31 07:45:07;;;;;;;3.00;0.98;;;15.20;99.90;;;;;;5112934;27;20036;-80
2021/08/31 07:47:34;;;;;;;4.97;1.20;;;15.40;99.90;;;;;;5109006;27;20089;-80
2021/08/31 07:50:00;;;;;;;1.98;0.85;;;15.40;99.90;;;;;;5126964;27;20054;-80
2021/08/31 07:52:26;;;;;;;1.90;0.95;;;15.50;99.90;;;;;;5109877;27;20126;-81
2021/08/31 07:54:52;;;;;;;1.70;0.68;;;15.60;99.90;;;;;;5121062;27;20157;-80
2021/08/31 07:57:18;;;;;;;2.55;0.80;;;15.70;99.90;;;;;;5118958;27;20023;-80
2021/08/31 07:59:43;;;;;;;2.53;1.05;;;15.80;99.90;;;;;;5121632;27;20031;-80
2021/08/31 08:02:09;;;;;;;2.95;0.70;;;15.80;99.90;;;;;;5113629;27;20039;-81
2021/08/31 08:04:35;;;;;;;4.18;1.00;;;15.80;99.90;;;;;;5098924;27;20043;-81
2021/08/31 08:07:01;;;;;;;1.90;1.05;;;15.70;99.90;;;;;;5124492;27;20096;-80
2021/08/31 08:09:26;;;;;;;1.92;1.00;;;15.70;99.90;;;;;;5119245;27;20035;-80
2021/08/31 08:11:52;;;;;;;3.88;1.00;;;15.80;99.90;;;;;;5106864;27;20045;-80
2021/08/31 08:14:18;;;;;;;2.88;1.17;;;15.90;99.90;;;;;;5117014;27;20034;-80
2021/08/31 08:16:44;;;;;;;3.88;1.10;;;15.90;99.90;;;;;;5116050;27;20027;-80
2021/08/31 08:19:09;;;;;;;1.60;0.90;;;15.90;99.90;;;;;;5109982;27;20451;-80
2021/08/31 08:21:36;;;;;;;4.72;1.08;;;16.00;99.90;;;;;;5106205;28;20023;-80
2021/08/31 08:24:03;;;;;;;4.57;1.00;;;16.10;99.90;;;;;;5123480;27;20042;-80
2021/08/31 08:26:29;;;;;;;9.65;2.13;;;16.10;99.90;;;;;;5113405;27;20049;-80
2021/08/31 08:28:55;;;;;;;2.00;1.08;;;16.20;99.90;;;;;;5120624;27;20113;-80
2021/08/31 08:31:20;;;;;;;2.38;1.20;;;16.20;99.90;;;;;;5106724;27;20031;-79
2021/08/31 08:33:46;;;;;;;2.05;0.80;;;16.20;99.90;;;;;;5110049;27;20011;-79
2021/08/31 08:36:12;;;;;;;3.25;1.15;;;16.30;99.90;;;;;;5109094;27;20084;-79
2021/08/31 08:38:38;;;;;;;1.83;0.88;;;16.40;99.90;;;;;;5099164;27;20025;-80
2021/08/31 08:41:06;;;;;;;3.35;1.38;;;16.40;99.90;;;;;;5106158;28;20107;-80
2021/08/31 08:43:34;;;;;;;1.92;0.82;;;16.50;99.90;;;;;;5124699;27;20046;-80
2021/08/31 08:46:06;;;;;;;1.50;0.70;;;16.40;99.90;;;;;;5110160;27;20028;-80
2021/08/31 08:48:33;;;;;;;3.25;0.90;;;16.60;99.90;;;;;;5099884;27;20055;-80
2021/08/31 08:51:01;;;;;;;2.10;0.93;;;19.50;99.20;;;;;;5116699;27;20070;-81
2021/08/31 08:53:29;;;;;;;1.45;0.60;;;21.80;96.50;;;;;;5108814;27;20062;-80
2021/08/31 08:55:56;;;;;;;2.90;0.80;;;22.40;94.00;;;;;;5118248;27;20512;-81
2021/08/31 08:58:22;;;;;;;1.80;0.70;;;22.70;93.40;;;;;;5107631;27;20072;-80
2021/08/31 09:01:11;;;;;;;1.92;0.68;;;23.80;93.00;;;;;;5117449;27;20452;-81
2021/08/31 09:03:56;;;;;;;1.45;0.57;;;24.00;91.70;;;;;;5109738;27;20484;-81
2021/08/31 09:06:23;;;;;;;2.35;0.82;;;23.70;91.70;;;;;;5112735;27;20053;-81
2021/08/31 09:09:06;;;;;;;2.00;0.63;;;23.60;91.90;;;;;;5116311;27;20043;-81
2021/08/31 09:11:38;;;;;;;1.40;0.70;;;23.70;92.40;;;;;;5113759;27;20112;-81
2021/08/31 09:14:29;;;;;;;1.67;0.80;;;24.10;91.70;;;;;;5117266;27;20024;-81
2021/08/31 09:16:57;;;;;;;1.45;0.90;;;24.00;92.10;;;;;;5107442;27;20524;-80
2021/08/31 09:19:36;;;;;;;3.55;0.90;;;24.20;91.80;;;;;;5114502;27;20100;-80
2021/08/31 09:22:34;;;;;;;1.75;0.70;;;24.40;91.30;;;;;;5105142;27;20774;-80
2021/08/31 09:25:08;;;;;;;2.67;0.98;;;24.30;90.80;;;;;;5073730;27;20048;-79
2021/08/31 09:27:39;;;;;;;1.42;0.57;;;23.00;92.10;;;;;;5110685;27;20385;-80
2021/08/31 09:30:21;;;;;;;3.88;1.17;;;21.80;93.40;;;;;;5122360;27;20069;-81
2021/08/31 09:33:07;;;;;;;2.20;0.77;;;21.10;94.90;;;;;;5099451;27;20034;-80
2021/08/31 09:35:37;;;;;;;3.20;1.00;;;20.70;95.10;;;;;;5123506;27;20023;-82
2021/08/31 09:38:11;;;;;;;3.10;0.80;;;20.10;95.60;;;;;;5109109;28;20023;-81
2021/08/31 09:40:39;;;;;;;2.60;0.60;;;19.90;95.20;;;;;;5114647;28;20023;-79
2021/08/31 09:43:09;;;;;;;3.72;0.73;;;19.80;95.60;;;;;;5104799;28;20035;-81
2021/08/31 09:45:38;;;;;;;1.60;0.60;;;19.90;96.70;;;;;;5129251;27;20023;-81
2021/08/31 09:48:06;;;;;;;1.67;0.68;;;19.60;95.90;;;;;;5117400;27;20024;-81
2021/08/31 09:50:34;;;;;;;2.25;0.68;;;19.70;95.60;;;;;;5117025;27;20092;-81
2021/08/31 09:53:01;;;;;;;2.17;0.98;;;19.80;96.20;;;;;;5126454;27;20034;-81
2021/08/31 09:55:27;;;;;;;1.60;0.70;;;19.80;95.70;;;;;;5109304;28;20077;-81
2021/08/31 09:58:10;;;;;;;1.00;0.50;;;19.70;95.10;;;;;;5117000;27;20418;-80
2021/08/31 10:00:38;;;;;;;1.60;0.70;;;20.00;96.10;;;;;;5124508;27;20034;-81
2021/08/31 10:03:04;;;;;;;2.15;0.88;;;20.00;96.20;;;;;;5108380;27;20711;-81
2021/08/31 10:05:33;;;;;;;1.92;0.85;;;20.00;94.80;;;;;;5111342;27;20042;-80
2021/08/31 10:08:01;;;;;;;1.42;0.68;;;20.10;94.40;;;;;;5124270;27;20051;-80
2021/08/31 10:10:28;;;;;;;1.90;0.70;;;20.10;94.70;;;;;;5118529;27;20055;-79
2021/08/31 10:12:57;;;;;;;2.47;1.00;;;20.30;94.60;;;;;;5128002;27;20019;-81
2021/08/31 10:15:24;;;;;;;1.75;0.80;;;20.20;95.10;;;;;;5100942;27;20115;-81
2021/08/31 10:17:51;;;;;;;1.55;0.55;;;20.50;94.80;;;;;;5121260;27;20049;-81
2021/08/31 10:20:26;;;;;;;1.70;0.70;;;20.60;95.70;;;;;;5115292;27;20355;-80
2021/08/31 10:22:53;;;;;;;1.90;0.77;;;20.40;93.60;;;;;;5116207;27;20039;-82
2021/08/31 10:25:24;;;;;;;1.55;0.90;;;20.50;94.10;;;;;;5112035;27;20408;-81
2021/08/31 10:27:51;;;;;;;2.20;0.88;;;20.80;95.40;;;;;;5112691;27;20024;-81
2021/08/31 10:30:20;;;;;;;2.22;0.95;;;20.80;94.50;;;;;;5098219;27;20029;-82
2021/08/31 10:33:01;;;;;;;2.55;1.00;;;21.20;95.50;;;;;;5117809;27;20033;-80
2021/08/31 10:35:35;;;;;;;2.45;0.82;;;21.20;94.40;;;;;;5120745;27;20035;-81
2021/08/31 10:38:06;;;;;;;3.78;0.90;;;21.20;93.70;;;;;;5129220;27;20058;-81
2021/08/31 10:40:46;;;;;;;2.55;0.40;;;21.20;94.00;;;;;;5119088;27;20038;-82
2021/08/31 10:43:20;;;;;;;1.00;0.40;;;21.30;94.60;;;;;;5128620;27;20043;-81
2021/08/31 10:45:54;;;;;;;3.17;0.77;;;21.40;94.50;;;;;;5114141;27;20047;-80
2021/08/31 10:48:23;;;;;;;3.25;0.85;;;21.50;93.80;;;;;;5118183;27;20106;-81
2021/08/31 10:51:09;;;;;;;1.08;0.50;;;21.60;93.80;;;;;;5128636;27;20019;-81
2021/08/31 10:53:39;;;;;;;2.85;0.63;;;21.50;92.60;;;;;;5130578;27;20103;-82
2021/08/31 10:56:23;;;;;;;5.55;1.10;;;21.50;92.80;;;;;;5123699;27;20080;-82
2021/08/31 10:58:52;;;;;;;2.78;0.80;;;21.60;93.10;;;;;;5108106;27;20029;-81
2021/08/31 11:01:20;;;;;;;1.65;0.60;;;21.80;93.20;;;;;;5108720;27;20051;-82
2021/08/31 11:03:48;;;;;;;2.15;0.70;;;22.00;93.40;;;;;;5133125;27;20034;-78
2021/08/31 11:06:19;;;;;;;4.75;1.40;;;22.10;93.00;;;;;;5089817;27;20028;-78
2021/08/31 11:09:13;;;;;;;1.42;0.80;;;22.50;93.20;;;;;;5115772;27;20028;-77
2021/08/31 11:11:42;;;;;;;2.80;0.95;;;22.70;92.50;;;;;;5116992;27;20065;-79
2021/08/31 11:14:08;;;;;;;1.05;0.45;;;22.30;91.70;;;;;;5118440;27;20016;-80
2021/08/31 11:16:37;;;;;;;3.78;1.10;;;22.30;93.00;;;;;;5117332;27;20046;-79
2021/08/31 11:19:05;;;;;;;1.85;0.50;;;22.60;93.60;;;;;;5115833;27;20033;-79
2021/08/31 11:21:46;;;;;;;3.38;0.95;;;22.80;92.90;;;;;;5107337;27;20103;-81
2021/08/31 11:24:12;;;;;;;5.97;0.80;;;22.70;94.00;;;;;;5126219;27;20066;-81
2021/08/31 11:26:39;;;;;;;3.05;0.90;;;22.60;93.50;;;;;;5099183;27;20080;-80
2021/08/31 11:29:08;;;;;;;1.50;0.50;;;22.40;93.30;;;;;;5108816;27;20513;-80
2021/08/31 11:31:34;;;;;;;3.20;0.43;;;22.60;94.00;;;;;;5107281;27;20670;-80
2021/08/31 11:34:00;;;;;;;11.25;0.90;;;22.60;92.20;;;;;;5115214;27;20056;-81
2021/08/31 11:36:29;;;;;;;2.13;0.50;;;22.60;92.10;;;;;;5112531;27;20035;-80
2021/08/31 11:38:59;;;;;;;13.02;12.18;;;23.00;92.20;;;;;;5107192;27;20012;-81
2021/08/31 11:41:34;;;;;;;1.90;0.55;;;23.20;91.60;;;;;;5110230;27;20026;-81
2021/08/31 11:44:11;;;;;;;2.20;0.40;;;23.20;91.40;;;;;;5112790;27;20042;-80
2021/08/31 11:46:46;;;;;;;1.23;0.60;;;23.20;91.20;;;;;;5123128;27;20055;-79
2021/08/31 11:49:18;;;;;;;2.33;0.40;;;23.30;91.20;;;;;;5120577;27;20024;-82
2021/08/31 11:52:00;;;;;;;1.85;0.57;;;23.40;91.20;;;;;;5115238;27;20030;-80
2021/08/31 11:54:29;;;;;;;0.50;0.32;;;23.50;91.60;;;;;;5121050;27;20030;-80
2021/08/31 11:56:58;;;;;;;1.10;0.50;;;23.60;91.00;;;;;;5108957;27;20058;-80
2021/08/31 11:59:38;;;;;;;1.70;0.50;;;23.50;91.10;;;;;;5120641;27;20493;-80
2021/08/31 12:02:16;;;;;;;0.88;0.43;;;23.70;92.30;;;;;;5109522;27;20583;-80
2021/08/31 12:05:04;;;;;;;2.97;0.68;;;23.60;91.40;;;;;;5128330;27;21459;-79
2021/08/31 12:07:41;;;;;;;0.75;0.52;;;23.60;91.70;;;;;;5111741;27;20118;-79
2021/08/31 12:10:21;;;;;;;1.00;0.30;;;24.00;91.80;;;;;;5118757;27;20056;-82
2021/08/31 12:12:47;;;;;;;2.70;0.35;;;24.10;91.40;;;;;;5112816;27;20678;-80
2021/08/31 12:15:14;;;;;;;3.40;0.68;;;24.00;91.40;;;;;;5114796;27;20032;-80
2021/08/31 12:17:45;;;;;;;1.27;0.52;;;24.10;91.10;;;;;;5104116;28;20074;-81
2021/08/31 12:20:15;;;;;;;1.17;0.50;;;24.10;91.10;;;;;;5117351;27;20020;-81
2021/08/31 12:22:43;;;;;;;4.30;1.00;;;24.20;90.30;;;;;;5124917;27;20454;-78
2021/08/31 12:25:10;;;;;;;1.15;0.57;;;24.10;89.70;;;;;;5127080;27;20046;-80
2021/08/31 12:27:46;;;;;;;4.00;0.70;;;23.90;88.50;;;;;;5119326;27;20050;-80
2021/08/31 12:30:18;;;;;;;1.95;0.50;;;23.80;88.60;;;;;;5119843;27;20493;-80
2021/08/31 12:32:54;;;;;;;0.75;0.40;;;24.10;89.50;;;;;;5106027;28;20493;-81
2021/08/31 12:35:27;;;;;;;4.03;0.30;;;24.30;89.60;;;;;;5116223;27;20032;-79
2021/08/31 12:38:18;;;;;;;1.52;0.50;;;24.50;90.80;;;;;;5113697;27;20052;-81
2021/08/31 12:40:50;;;;;;;1.80;0.50;;;24.50;90.30;;;;;;5112851;27;20019;-80
2021/08/31 12:43:17;;;;;;;2.25;0.80;;;24.50;90.30;;;;;;5109668;27;20506;-80
2021/08/31 12:45:52;;;;;;;2.42;0.73;;;24.40;88.50;;;;;;5115885;27;20046;-80
2021/08/31 12:48:19;;;;;;;1.02;0.50;;;24.60;90.50;;;;;;5107500;27;20035;-80
2021/08/31 12:50:50;;;;;;;0.75;0.50;;;24.60;90.10;;;;;;5110354;27;20084;-80